Time;durP1;ratioP1;P1;durP2;ratioP2;P2;SDS_P1;SDS_P2;PMS_P1;PMS_P2;Temp;Humidity;BMP_temperature;BMP_pressure;BME280_temperature;BME280_humidity;BME280_pressure;Samples;Min_cycle;Max_cycle;Signal;HPM_P1;HPM_P2
2022/05/08 00:00:27;;;;;;;;;13.20;11.20;;;;;18.66;30.92;99634.97;5046437;28;8965;-75
2022/05/08 00:03:05;;;;;;;;;12.00;11.40;;;;;18.58;31.03;99631.72;5061596;28;9632;-74
2022/05/08 00:05:34;;;;;;;;;9.40;9.00;;;;;18.56;31.01;99627.38;5046703;28;8869;-72
2022/05/08 00:08:07;;;;;;;;;12.60;11.40;;;;;18.55;30.84;99639.72;5031399;28;8904;-74
2022/05/08 00:10:36;;;;;;;;;11.20;9.80;;;;;18.51;31.50;99636.31;5066236;28;8875;-73
2022/05/08 00:13:04;;;;;;;;;10.40;9.40;;;;;18.51;31.68;99635.47;5018303;28;8871;-73
2022/05/08 00:15:33;;;;;;;;;11.80;11.00;;;;;18.51;31.38;99635.47;5064398;28;8846;-72
2022/05/08 00:18:02;;;;;;;;;10.60;10.60;;;;;18.50;31.87;99637.22;5051065;28;10020;-72
2022/05/08 00:20:31;;;;;;;;;11.20;11.20;;;;;18.49;31.92;99639.94;5049618;28;8927;-74
2022/05/08 00:23:00;;;;;;;;;9.60;9.60;;;;;18.45;32.00;99633.00;5052475;28;8979;-72
2022/05/08 00:25:30;;;;;;;;;10.20;9.60;;;;;18.38;31.53;99640.25;5051701;28;9620;-75
2022/05/08 00:27:58;;;;;;;;;10.00;10.00;;;;;18.35;31.93;99639.50;5050011;28;8819;-72
2022/05/08 00:30:27;;;;;;;;;12.80;12.80;;;;;18.33;32.54;99643.94;5051269;28;9026;-75
2022/05/08 00:32:56;;;;;;;;;14.00;13.40;;;;;18.27;32.57;99640.59;5032661;28;8867;-72
2022/05/08 00:35:24;;;;;;;;;13.40;12.40;;;;;18.26;32.83;99644.16;5050929;28;9682;-72
2022/05/08 00:37:53;;;;;;;;;13.00;11.80;;;;;18.25;33.09;99641.56;5051395;28;8850;-73
2022/05/08 00:40:22;;;;;;;;;13.80;13.40;;;;;18.23;33.18;99646.00;5050899;28;8898;-74
2022/05/08 00:42:56;;;;;;;;;14.60;14.40;;;;;18.20;33.22;99649.59;5051352;28;8858;-72
2022/05/08 00:45:24;;;;;;;;;11.60;11.60;;;;;18.16;33.16;99655.88;5050999;28;8834;-72
2022/05/08 00:47:54;;;;;;;;;13.60;12.00;;;;;18.11;33.52;99648.13;5049228;28;8857;-74
2022/05/08 00:50:22;;;;;;;;;16.00;14.00;;;;;18.05;32.70;99658.84;5060778;28;8856;-71
2022/05/08 00:52:52;;;;;;;;;11.60;11.40;;;;;18.01;33.13;99658.97;5035871;28;8909;-73
2022/05/08 00:55:20;;;;;;;;;10.60;10.20;;;;;17.92;33.24;99663.63;5060029;28;8838;-73
2022/05/08 00:57:49;;;;;;;;;13.20;11.20;;;;;17.88;33.22;99661.97;5034123;28;8854;-72
2022/05/08 01:00:19;;;;;;;;;13.20;11.60;;;;;17.86;32.89;99660.28;5070378;28;8847;-73
2022/05/08 01:02:48;;;;;;;;;10.20;10.00;;;;;17.81;32.74;99656.91;5069494;28;9613;-74
2022/05/08 01:05:17;;;;;;;;;9.00;9.00;;;;;17.83;32.72;99655.06;5074962;28;8863;-73
2022/05/08 01:07:46;;;;;;;;;10.00;10.00;;;;;17.83;32.37;99652.44;5068616;28;8876;-73
2022/05/08 01:10:15;;;;;;;;;9.80;8.60;;;;;17.84;32.29;99654.16;5068983;28;8880;-72
2022/05/08 01:12:44;;;;;;;;;9.20;9.20;;;;;17.83;32.71;99652.44;5070564;28;8856;-72
2022/05/08 01:15:15;;;;;;;;;10.00;8.00;;;;;17.83;32.26;99652.44;5070406;28;9628;-72
2022/05/08 01:17:46;;;;;;;;;10.80;10.60;;;;;17.84;32.26;99655.03;5052365;28;8867;-74
2022/05/08 01:20:15;;;;;;;;;10.00;9.20;;;;;17.79;32.79;99656.94;5060734;28;8838;-74
2022/05/08 01:22:45;;;;;;;;;8.00;7.20;;;;;17.76;32.33;99657.00;5068180;28;8872;-72
2022/05/08 01:25:14;;;;;;;;;10.80;10.80;;;;;17.74;32.38;99653.56;5050785;28;8856;-71
2022/05/08 01:27:43;;;;;;;;;12.20;10.00;;;;;17.71;32.83;99656.25;5070011;28;8840;-72
2022/05/08 01:30:11;;;;;;;;;9.00;9.00;;;;;17.66;32.90;99656.41;5068612;28;8860;-73
2022/05/08 01:32:40;;;;;;;;;9.40;9.00;;;;;17.66;33.37;99653.78;5064737;28;8842;-75
2022/05/08 01:35:09;;;;;;;;;9.80;7.60;;;;;17.64;33.61;99658.22;5049896;28;8947;-73
2022/05/08 01:37:37;;;;;;;;;11.40;11.40;;;;;17.65;32.99;99661.72;5016918;28;8869;-72
2022/05/08 01:40:08;;;;;;;;;9.80;9.20;;;;;17.63;33.72;99655.63;5069544;28;9651;-73
2022/05/08 01:42:37;;;;;;;;;11.80;11.00;;;;;17.63;33.40;99667.03;5064745;28;8946;-73
2022/05/08 01:45:06;;;;;;;;;9.60;9.00;;;;;17.63;33.49;99661.75;5048654;28;8972;-74
2022/05/08 01:50:22;;;;;;;;;14.00;11.20;;;;;17.58;33.66;99655.75;5049835;28;8843;-72
2022/05/08 01:52:51;;;;;;;;;13.60;13.60;;;;;17.26;34.42;99660.13;5031796;28;8928;-73
2022/05/08 01:55:21;;;;;;;;;13.40;12.40;;;;;17.32;34.59;99659.09;5059849;28;8890;-74
2022/05/08 01:57:50;;;;;;;;;15.80;12.40;;;;;17.36;34.44;99650.19;5069681;28;8835;-73
2022/05/08 02:00:19;;;;;;;;;12.00;10.60;;;;;17.38;34.59;99648.38;5069352;28;8836;-72
2022/05/08 02:02:49;;;;;;;;;6.00;6.00;;;;;17.31;35.35;99650.31;5068092;28;8878;-73
2022/05/08 02:05:19;;;;;;;;;10.00;10.00;;;;;17.32;35.25;99646.78;5069294;28;8860;-72
2022/05/08 02:07:48;;;;;;;;;10.00;9.80;;;;;17.29;35.77;99640.72;5059845;28;8892;-73
2022/05/08 02:10:18;;;;;;;;;12.80;11.20;;;;;17.22;36.57;99644.41;5033246;28;8894;-72
2022/05/08 02:12:49;;;;;;;;;13.00;10.80;;;;;17.14;36.58;99648.13;5069984;28;8847;-72
2022/05/08 02:15:18;;;;;;;;;15.00;12.80;;;;;17.08;37.28;99642.16;5069918;28;9625;-72
2022/05/08 02:17:47;;;;;;;;;12.20;11.60;;;;;17.09;37.08;99644.75;5068417;28;8941;-73
2022/05/08 02:20:16;;;;;;;;;12.20;10.20;;;;;17.09;37.38;99638.63;5069746;28;9673;-73
2022/05/08 02:22:45;;;;;;;;;17.20;12.40;;;;;16.99;38.10;99643.22;5051508;28;8832;-73
2022/05/08 02:25:13;;;;;;;;;13.00;12.40;;;;;16.91;38.24;99637.31;5069189;28;9007;-72
2022/05/08 02:27:44;;;;;;;;;9.00;8.80;;;;;16.89;38.59;99639.97;5024168;28;8866;-73
2022/05/08 02:30:14;;;;;;;;;11.60;9.60;;;;;16.73;39.05;99634.19;5013651;28;8854;-72
2022/05/08 02:32:43;;;;;;;;;9.60;9.00;;;;;16.80;38.82;99634.88;5031033;28;9650;-74
2022/05/08 02:35:12;;;;;;;;;9.20;9.20;;;;;16.84;38.69;99633.09;5048132;28;8975;-73
2022/05/08 02:37:41;;;;;;;;;12.60;10.00;;;;;16.69;39.38;99635.19;5048835;28;8877;-73
2022/05/08 02:40:11;;;;;;;;;8.40;7.40;;;;;16.71;39.46;99635.09;5059276;28;8898;-73
2022/05/08 02:42:40;;;;;;;;;10.00;8.80;;;;;16.66;39.54;99629.97;5067540;28;8879;-72
2022/05/08 02:45:09;;;;;;;;;13.20;11.60;;;;;16.65;39.48;99633.50;5053836;28;8843;-72
2022/05/08 02:47:43;;;;;;;;;11.60;9.00;;;;;16.55;39.81;99635.47;5047750;28;8859;-72
2022/05/08 02:50:12;;;;;;;;;8.80;8.00;;;;;16.59;39.59;99640.69;4997457;28;8842;-72
2022/05/08 02:52:42;;;;;;;;;8.80;8.80;;;;;16.59;39.66;99633.66;5048617;28;8846;-74
2022/05/08 03:00:46;;;;;;;;;12.60;11.80;;;;;16.66;39.37;99637.88;5046766;28;8884;-73
2022/05/08 03:03:17;;;;;;;;;9.40;9.40;;;;;16.62;39.93;99632.72;4997698;28;8944;-73
2022/05/08 03:05:48;;;;;;;;;12.20;11.60;;;;;16.67;39.63;99629.09;5048417;28;8905;-72
2022/05/08 03:08:17;;;;;;;;;9.40;9.40;;;;;16.67;39.70;99630.81;5048143;28;8872;-74
2022/05/08 03:13:36;;;;;;;;;12.40;12.40;;;;;16.72;39.65;99631.59;5048455;28;8811;-72
2022/05/08 03:16:06;;;;;;;;;9.40;9.40;;;;;16.71;39.52;99632.47;5048070;28;8909;-73
2022/05/08 03:18:38;;;;;;;;;12.00;10.80;;;;;16.73;39.16;99636.81;5056870;28;8892;-73
2022/05/08 03:21:08;;;;;;;;;12.20;11.00;;;;;16.71;39.45;99637.75;5050063;28;8859;-74
2022/05/08 03:23:39;;;;;;;;;11.60;11.60;;;;;16.70;39.31;99644.78;5068482;28;8836;-75
2022/05/08 03:26:08;;;;;;;;;10.20;10.20;;;;;16.67;39.52;99641.34;5067878;28;8848;-72
2022/05/08 03:28:39;;;;;;;;;9.40;8.00;;;;;16.68;39.72;99632.56;5068337;28;8963;-74
2022/05/08 03:31:07;;;;;;;;;13.00;10.80;;;;;16.65;39.89;99638.75;5068831;28;8874;-73
2022/05/08 03:33:39;;;;;;;;;9.40;9.40;;;;;16.65;40.17;99644.03;5060254;28;8843;-75
2022/05/08 03:36:10;;;;;;;;;9.80;8.80;;;;;16.63;39.91;99640.56;5032705;28;8929;-73
2022/05/08 03:38:43;;;;;;;;;14.20;13.80;;;;;16.61;39.93;99646.78;5049193;28;8859;-73
2022/05/08 03:41:15;;;;;;;;;9.80;9.80;;;;;16.52;40.43;99653.13;5049615;28;8893;-72
2022/05/08 03:43:46;;;;;;;;;10.60;8.20;;;;;16.52;40.29;99647.84;5046276;28;8892;-73
2022/05/08 03:46:15;;;;;;;;;9.20;7.80;;;;;16.51;40.26;99654.03;5013239;28;8870;-72
2022/05/08 03:48:45;;;;;;;;;11.20;10.20;;;;;16.45;40.54;99655.03;5049854;28;8989;-73
2022/05/08 03:51:14;;;;;;;;;8.60;8.60;;;;;16.46;40.60;99651.50;5050486;28;8878;-74
2022/05/08 03:53:43;;;;;;;;;13.00;12.20;;;;;16.45;40.94;99662.94;5051517;28;8851;-72
2022/05/08 03:56:11;;;;;;;;;10.20;10.20;;;;;16.38;41.10;99663.97;5051454;28;9707;-72
2022/05/08 03:58:44;;;;;;;;;10.20;10.20;;;;;16.35;41.35;99661.41;5017742;28;8855;-73
2022/05/08 04:01:12;;;;;;;;;10.60;10.60;;;;;16.32;41.72;99669.38;5050684;28;8969;-72
2022/05/08 04:03:41;;;;;;;;;13.60;13.40;;;;;16.38;41.82;99672.72;5051998;28;8869;-73
2022/05/08 04:06:11;;;;;;;;;12.60;11.00;;;;;16.41;41.94;99670.91;5052872;28;9012;-73
2022/05/08 04:08:40;;;;;;;;;9.80;8.80;;;;;16.40;42.02;99672.69;5072240;28;8971;-75
2022/05/08 04:11:08;;;;;;;;;13.00;12.00;;;;;16.43;41.76;99669.16;5071269;28;8874;-75
2022/05/08 04:13:37;;;;;;;;;12.60;10.80;;;;;16.44;42.08;99668.22;5066856;28;9647;-74
2022/05/08 04:16:19;;;;;;;;;9.20;9.20;;;;;16.47;41.74;99669.03;5051539;28;8877;-74
2022/05/08 04:18:48;;;;;;;;;9.40;8.00;;;;;16.52;41.59;99677.69;5051673;28;8898;-72
2022/05/08 04:21:18;;;;;;;;;11.20;8.80;;;;;16.54;41.59;99675.88;5050948;28;8842;-73
2022/05/08 04:26:33;;;;;;;;;7.60;7.60;;;;;16.54;41.88;99685.53;5022097;28;8893;-72
2022/05/08 04:29:02;;;;;;;;;9.20;9.20;;;;;16.49;41.89;99676.91;5049824;28;9474;-72
2022/05/08 04:31:32;;;;;;;;;9.60;9.60;;;;;16.55;41.75;99676.75;5050882;28;8889;-72
2022/05/08 04:34:01;;;;;;;;;12.80;10.00;;;;;16.54;41.86;99678.53;5050995;28;8870;-72
2022/05/08 04:36:32;;;;;;;;;9.60;8.00;;;;;16.61;41.75;99684.50;5050465;28;8859;-72
2022/05/08 04:39:00;;;;;;;;;12.60;8.40;;;;;16.66;41.82;99682.63;5026917;28;8881;-73
2022/05/08 04:41:29;;;;;;;;;6.60;6.00;;;;;16.78;41.53;99692.00;5050779;28;8843;-72
2022/05/08 04:44:00;;;;;;;;;6.60;6.00;;;;;16.84;41.95;99685.75;5050754;28;8877;-73
2022/05/08 04:46:32;;;;;;;;;9.40;9.20;;;;;16.86;41.73;99690.09;5050908;28;8878;-72
2022/05/08 04:49:03;;;;;;;;;8.60;8.60;;;;;16.89;41.67;99694.44;5033400;28;8870;-72
2022/05/08 04:51:33;;;;;;;;;10.20;7.60;;;;;16.96;41.23;99688.13;5050880;28;8850;-72
2022/05/08 04:54:02;;;;;;;;;9.00;9.00;;;;;17.06;41.59;99696.66;5050660;28;8826;-73
2022/05/08 04:56:31;;;;;;;;;12.00;12.00;;;;;17.08;41.22;99686.94;5051239;28;8887;-74
2022/05/08 04:58:59;;;;;;;;;14.40;14.20;;;;;17.10;41.17;99687.75;5050480;28;8862;-74
2022/05/08 05:01:28;;;;;;;;;13.60;11.80;;;;;17.19;40.66;99699.84;5015320;28;8901;-74
2022/05/08 05:03:57;;;;;;;;;13.40;11.20;;;;;17.20;40.36;99688.38;5048902;28;8932;-73
2022/05/08 05:06:31;;;;;;;;;12.80;11.60;;;;;17.20;40.45;99691.03;5050273;28;8839;-72
2022/05/08 05:09:00;;;;;;;;;12.60;11.60;;;;;17.29;40.56;99689.00;5065439;28;8874;-72
2022/05/08 05:11:29;;;;;;;;;11.80;10.20;;;;;17.32;40.15;99693.38;5064922;28;9253;-75
2022/05/08 05:14:01;;;;;;;;;9.40;8.20;;;;;17.38;40.37;99695.84;5070374;28;8835;-73
2022/05/08 05:16:30;;;;;;;;;10.60;9.40;;;;;17.46;39.97;99698.25;5068638;28;8872;-72
2022/05/08 05:18:58;;;;;;;;;10.00;9.60;;;;;17.53;39.85;99695.41;5068447;28;8872;-73
2022/05/08 05:21:27;;;;;;;;;14.80;14.20;;;;;17.60;39.68;99700.53;5069940;28;8832;-75
2022/05/08 05:23:55;;;;;;;;;10.00;10.00;;;;;17.67;39.72;99696.81;5048374;28;8854;-74
2022/05/08 05:26:25;;;;;;;;;12.00;9.60;;;;;17.77;39.55;99702.72;5049704;28;8851;-75
2022/05/08 05:28:54;;;;;;;;;9.20;9.00;;;;;17.85;39.71;99708.69;5048740;28;8862;-73
2022/05/08 05:31:23;;;;;;;;;10.00;10.00;;;;;17.87;39.55;99705.09;5049590;28;8878;-73
2022/05/08 05:33:52;;;;;;;;;9.60;9.20;;;;;18.02;39.31;99700.31;5049903;28;8827;-74
2022/05/08 05:36:21;;;;;;;;;10.80;10.60;;;;;18.10;38.90;99699.16;5051168;28;8834;-73
2022/05/08 05:38:49;;;;;;;;;8.80;8.80;;;;;18.19;38.65;99694.53;5066874;28;8981;-73
2022/05/08 05:41:18;;;;;;;;;8.40;8.40;;;;;18.26;38.19;99688.13;5069034;28;8974;-75
2022/05/08 05:43:48;;;;;;;;;10.00;10.00;;;;;18.31;38.27;99688.88;5067210;28;8858;-76
2022/05/08 05:49:05;;;;;;;;;15.00;11.80;;;;;18.45;37.99;99688.44;4991148;28;8856;-72
2022/05/08 05:51:33;;;;;;;;;9.00;8.80;;;;;18.45;38.12;99694.63;5007565;28;9037;-75
2022/05/08 05:54:02;;;;;;;;;9.20;9.00;;;;;18.45;38.07;99697.25;5007422;28;8844;-73
2022/05/08 05:56:31;;;;;;;;;9.40;9.20;;;;;18.49;37.70;99700.66;5007889;28;9602;-74
2022/05/08 05:59:00;;;;;;;;;9.80;9.40;;;;;18.49;37.88;99687.47;4940187;28;8962;-75
2022/05/08 06:01:47;;;;;;;;;11.20;11.20;;;;;18.62;38.45;99699.38;5006859;28;8844;-74
2022/05/08 06:04:15;;;;;;;;;10.60;10.60;;;;;18.68;37.50;99699.19;4974712;28;8979;-76
2022/05/08 06:06:44;;;;;;;;;9.00;9.00;;;;;18.70;37.73;99694.72;4991495;28;9640;-74
2022/05/08 06:09:13;;;;;;;;;8.60;7.80;;;;;18.83;37.64;99697.00;5007128;28;8875;-75
2022/05/08 06:11:44;;;;;;;;;9.40;9.40;;;;;18.78;37.65;99699.75;5006736;28;8848;-74
2022/05/08 06:14:14;;;;;;;;;8.00;8.00;;;;;18.94;37.50;99694.88;5007570;28;8886;-74
2022/05/08 06:16:42;;;;;;;;;11.80;10.40;;;;;19.02;37.09;99692.00;5005930;28;8934;-74
2022/05/08 06:19:11;;;;;;;;;10.80;9.00;;;;;19.04;37.06;99700.72;5006119;28;8829;-76
2022/05/08 06:21:39;;;;;;;;;8.00;8.00;;;;;19.15;36.58;99705.66;5007036;28;8983;-77
2022/05/08 06:24:08;;;;;;;;;13.00;13.00;;;;;19.21;36.38;99701.03;4990053;28;8874;-73
2022/05/08 06:26:37;;;;;;;;;7.80;7.60;;;;;19.41;36.20;99702.13;5035089;28;9237;-74
2022/05/08 06:29:05;;;;;;;;;7.20;7.20;;;;;19.48;35.81;99709.78;5051415;28;8862;-78
2022/05/08 06:31:35;;;;;;;;;8.00;8.00;;;;;19.61;35.59;99702.31;5063262;28;8840;-74
2022/05/08 06:34:04;;;;;;;;;8.80;8.20;;;;;19.77;35.64;99707.97;5066872;28;8978;-74
2022/05/08 06:36:32;;;;;;;;;10.20;9.20;;;;;19.93;35.15;99710.91;5037098;28;8862;-77
2022/05/08 06:39:01;;;;;;;;;7.80;7.80;;;;;20.09;34.97;99703.25;5047786;28;8835;-66
2022/05/08 06:41:30;;;;;;;;;11.20;9.20;;;;;20.34;34.74;99707.63;5048446;28;8867;-67
2022/05/08 06:43:58;;;;;;;;;9.00;8.20;;;;;20.53;34.58;99707.78;5061562;28;9596;-66
2022/05/08 06:46:31;;;;;;;;;9.20;8.20;;;;;20.70;34.14;99707.16;5048619;28;8896;-74
2022/05/08 06:49:01;;;;;;;;;9.00;8.40;;;;;20.84;33.56;99718.06;5047640;28;8862;-70
2022/05/08 06:51:30;;;;;;;;;9.00;8.60;;;;;20.92;33.80;99725.72;5053672;28;8858;-69
2022/05/08 06:53:59;;;;;;;;;23.20;21.20;;;;;21.03;33.83;99716.41;5049888;28;8888;-70
2022/05/08 06:56:30;;;;;;;;;9.20;9.00;;;;;21.18;33.77;99714.91;5067021;28;8840;-74
2022/05/08 07:01:45;;;;;;;;;8.80;8.80;;;;;21.35;32.75;99716.84;5047869;28;8890;-73
2022/05/08 07:04:16;;;;;;;;;8.40;8.40;;;;;21.30;33.39;99710.03;5048050;28;8862;-74
2022/05/08 07:06:44;;;;;;;;;15.80;13.00;;;;;21.45;33.23;99720.00;5057965;28;9580;-75
2022/05/08 07:09:14;;;;;;;;;8.00;7.20;;;;;21.49;31.86;99718.94;5043189;28;8860;-75
2022/05/08 07:11:45;;;;;;;;;11.80;10.80;;;;;21.65;32.12;99723.63;5063235;28;9566;-74
2022/05/08 07:14:15;;;;;;;;;8.40;8.40;;;;;21.78;32.66;99720.34;5022907;28;9713;-74
2022/05/08 07:16:43;;;;;;;;;7.20;7.20;;;;;21.86;32.92;99720.00;5046548;28;8843;-69
2022/05/08 07:19:12;;;;;;;;;9.20;9.20;;;;;22.04;32.15;99712.16;5046843;28;8932;-72
2022/05/08 07:21:42;;;;;;;;;8.20;8.20;;;;;22.09;31.95;99713.66;5049956;28;8866;-74
2022/05/08 07:24:11;;;;;;;;;11.60;10.40;;;;;21.99;32.03;99715.88;5050192;28;8847;-74
2022/05/08 07:26:40;;;;;;;;;7.40;7.40;;;;;22.02;31.31;99706.91;5052478;28;8931;-74
2022/05/08 07:29:08;;;;;;;;;8.40;7.60;;;;;21.98;30.97;99698.25;5052263;28;8955;-74
2022/05/08 07:31:38;;;;;;;;;11.00;9.60;;;;;21.89;30.55;99708.38;5033102;28;8998;-76
2022/05/08 07:36:55;;;;;;;;;6.80;6.80;;;;;22.05;30.82;99711.22;5052070;28;8981;-75
2022/05/08 07:39:24;;;;;;;;;7.60;7.60;;;;;22.08;30.87;99709.31;5050717;28;8867;-75
2022/05/08 07:41:52;;;;;;;;;8.60;8.60;;;;;22.11;30.57;99713.59;5070637;28;8991;-75
2022/05/08 07:44:21;;;;;;;;;8.20;8.20;;;;;22.12;30.79;99718.00;5062668;28;8862;-74
2022/05/08 07:46:51;;;;;;;;;8.80;7.00;;;;;22.11;30.72;99722.41;5052389;28;8906;-75
2022/05/08 07:49:19;;;;;;;;;8.40;7.60;;;;;22.12;30.66;99718.84;5051821;28;8885;-74
2022/05/08 07:51:48;;;;;;;;;8.80;8.80;;;;;22.21;30.93;99717.53;5051816;28;8997;-74
2022/05/08 07:54:18;;;;;;;;;10.40;10.40;;;;;22.28;31.32;99726.16;5051760;28;8869;-75
2022/05/08 07:56:46;;;;;;;;;8.00;7.40;;;;;22.34;31.49;99724.09;5062668;28;8974;-73
2022/05/08 07:59:15;;;;;;;;;12.00;12.00;;;;;22.39;31.62;99726.50;5071610;28;8859;-74
2022/05/08 08:01:45;;;;;;;;;13.60;12.40;;;;;22.40;31.54;99736.22;5058888;28;8944;-75
2022/05/08 08:04:18;;;;;;;;;8.40;8.40;;;;;22.46;31.79;99735.94;5051352;28;9694;-74
2022/05/08 08:06:47;;;;;;;;;7.60;7.60;;;;;22.44;30.99;99731.59;5051151;28;8855;-74
2022/05/08 08:09:15;;;;;;;;;9.60;9.60;;;;;22.49;31.27;99735.75;5051467;28;8908;-74
2022/05/08 08:11:45;;;;;;;;;11.40;10.00;;;;;22.55;31.12;99739.94;5051239;28;8843;-75
2022/05/08 08:14:14;;;;;;;;;10.60;9.20;;;;;22.57;31.59;99738.06;5050748;28;8831;-73
2022/05/08 08:17:04;;;;;;;;;7.60;7.60;;;;;22.53;31.29;99739.16;5049780;28;8839;-74
2022/05/08 08:19:32;;;;;;;;;11.80;10.60;;;;;22.57;31.52;99743.38;5049606;28;8866;-76
2022/05/08 08:22:01;;;;;;;;;8.80;8.40;;;;;22.76;31.46;99746.91;5028347;28;8920;-75
2022/05/08 08:24:29;;;;;;;;;10.00;9.20;;;;;22.87;31.24;99743.75;5028581;28;9747;-74
2022/05/08 08:27:00;;;;;;;;;11.40;10.40;;;;;22.84;31.18;99754.53;5028538;28;8893;-74
2022/05/08 08:29:28;;;;;;;;;7.80;7.00;;;;;22.76;31.36;99751.38;5028602;28;9060;-75
2022/05/08 08:31:56;;;;;;;;;8.80;8.80;;;;;22.85;31.75;99747.41;5027365;28;9545;-74
2022/05/08 08:34:26;;;;;;;;;9.00;8.80;;;;;22.80;31.43;99749.41;5027227;28;8855;-74
2022/05/08 08:36:55;;;;;;;;;11.60;10.00;;;;;22.88;31.42;99748.13;5027449;28;8870;-73
2022/05/08 08:39:23;;;;;;;;;12.40;10.20;;;;;23.01;31.41;99751.06;5026930;28;8879;-75
2022/05/08 08:42:04;;;;;;;;;11.00;10.00;;;;;23.15;31.30;99751.25;5011736;28;8935;-73
2022/05/08 08:50:06;;;;;;;;;7.80;6.80;;;;;23.28;30.72;99754.16;5027163;28;10159;-71
2022/05/08 08:52:36;;;;;;;;;9.00;7.80;;;;;23.23;30.44;99753.56;5039368;28;9457;-74
2022/05/08 08:55:08;;;;;;;;;8.80;8.60;;;;;23.28;30.83;99746.19;5027040;28;8904;-76
2022/05/08 08:57:38;;;;;;;;;8.40;6.80;;;;;23.28;30.74;99758.63;5027781;28;8869;-73
2022/05/08 09:00:09;;;;;;;;;8.80;7.40;;;;;23.14;31.32;99762.84;5051335;28;8866;-70
2022/05/08 09:02:38;;;;;;;;;7.60;7.60;;;;;23.16;30.55;99746.81;5049923;28;8874;-72
2022/05/08 09:05:09;;;;;;;;;10.80;9.20;;;;;23.23;31.52;99745.56;5051212;28;8839;-72
2022/05/08 09:07:45;;;;;;;;;10.40;9.00;;;;;23.22;31.43;99751.81;5064456;28;8876;-72
2022/05/08 09:10:16;;;;;;;;;16.80;14.20;;;;;23.29;31.74;99755.03;5049960;28;8958;-73
2022/05/08 09:13:02;;;;;;;;;12.20;10.40;;;;;23.38;31.33;99756.38;4997309;28;8916;-72
2022/05/08 09:15:38;;;;;;;;;11.40;10.80;;;;;23.42;31.38;99748.19;5049056;28;8839;-73
2022/05/08 09:18:09;;;;;;;;;10.80;10.80;;;;;23.54;31.67;99752.00;5051712;28;8855;-73
2022/05/08 09:20:39;;;;;;;;;9.20;9.20;;;;;23.66;31.32;99754.03;5050555;28;8827;-73
2022/05/08 09:23:12;;;;;;;;;10.40;8.40;;;;;23.71;30.72;99749.34;5049715;28;8854;-69
2022/05/08 09:25:46;;;;;;;;;10.40;9.80;;;;;23.78;30.89;99741.03;5049618;28;8862;-67
2022/05/08 09:28:41;;;;;;;;;11.20;11.00;;;;;23.59;31.23;99750.00;5049030;28;9556;-68
2022/05/08 09:31:11;;;;;;;;;10.80;10.80;;;;;23.71;30.65;99745.81;5049689;28;8889;-64
2022/05/08 09:33:42;;;;;;;;;12.40;10.60;;;;;23.90;30.71;99740.44;5049283;28;8878;-67
2022/05/08 09:36:12;;;;;;;;;9.20;6.40;;;;;23.81;30.55;99747.09;5058946;28;8864;-68
2022/05/08 09:38:43;;;;;;;;;8.80;8.80;;;;;23.92;30.67;99750.06;5066406;28;8844;-67
2022/05/08 09:41:12;;;;;;;;;6.80;6.80;;;;;23.92;30.18;99739.41;5049367;28;8872;-66
2022/05/08 09:43:42;;;;;;;;;8.00;8.00;;;;;23.94;30.10;99737.50;5048906;28;8834;-67
2022/05/08 09:46:11;;;;;;;;;9.80;9.80;;;;;23.88;30.15;99742.31;5048139;28;8851;-69
2022/05/08 09:48:40;;;;;;;;;13.40;10.00;;;;;23.99;30.22;99742.63;5049093;28;8854;-68
2022/05/08 09:51:10;;;;;;;;;8.80;8.80;;;;;23.97;30.00;99739.19;5054059;28;8832;-68
2022/05/08 09:53:40;;;;;;;;;10.80;9.00;;;;;23.90;30.29;99743.94;5084224;28;8824;-69
2022/05/08 09:56:10;;;;;;;;;10.00;9.60;;;;;23.79;30.20;99742.78;5049604;28;8840;-66
2022/05/08 09:58:43;;;;;;;;;7.80;7.80;;;;;24.00;30.22;99741.66;5068563;28;8979;-68
2022/05/08 10:01:14;;;;;;;;;10.00;10.00;;;;;24.07;29.63;99728.88;5068357;28;9002;-68
2022/05/08 10:03:44;;;;;;;;;8.40;8.40;;;;;24.11;29.71;99723.28;5068613;28;8883;-69
2022/05/08 10:06:14;;;;;;;;;14.20;9.80;;;;;24.08;29.63;99727.94;5068466;28;9004;-69
2022/05/08 10:08:45;;;;;;;;;11.80;10.00;;;;;24.16;29.78;99732.84;5035356;28;9584;-68
2022/05/08 10:14:07;;;;;;;;;10.00;10.00;;;;;24.27;29.41;99730.47;5048544;28;8834;-67
2022/05/08 10:16:47;;;;;;;;;11.60;9.00;;;;;24.15;29.10;99731.13;5048344;28;8831;-68
2022/05/08 10:19:54;;;;;;;;;9.40;9.40;;;;;24.16;29.48;99727.50;5048317;28;8957;-69
2022/05/08 10:22:24;;;;;;;;;8.80;8.60;;;;;24.19;29.12;99725.53;4986546;28;8862;-67
2022/05/08 10:24:56;;;;;;;;;11.00;9.40;;;;;24.30;28.88;99724.97;4950060;28;9626;-68
2022/05/08 10:27:27;;;;;;;;;8.00;7.80;;;;;24.45;28.72;99729.47;5005884;28;8883;-68
2022/05/08 10:30:33;;;;;;;;;8.80;8.80;;;;;24.48;29.13;99721.31;5005945;28;8867;-69
2022/05/08 10:33:02;;;;;;;;;11.00;10.20;;;;;24.58;28.38;99720.84;5004817;28;9621;-68
2022/05/08 10:35:32;;;;;;;;;8.40;8.00;;;;;24.65;28.12;99712.41;5005477;28;8994;-71
2022/05/08 10:38:30;;;;;;;;;11.80;10.60;;;;;24.52;28.10;99708.69;4989147;28;8895;-71
2022/05/08 10:40:59;;;;;;;;;10.80;10.80;;;;;24.67;28.72;99699.84;4927375;29;8982;-76
2022/05/08 10:43:32;;;;;;;;;11.00;9.00;;;;;24.75;28.32;99703.88;4910249;29;8905;-69
2022/05/08 10:46:24;;;;;;;;;8.40;7.80;;;;;24.68;27.71;99704.19;4926612;29;8863;-76
2022/05/08 10:48:54;;;;;;;;;10.80;9.80;;;;;24.71;28.26;99703.19;4927402;29;8882;-70
2022/05/08 10:51:23;;;;;;;;;10.80;10.00;;;;;24.81;28.24;99706.19;4927841;29;8874;-68
2022/05/08 10:53:52;;;;;;;;;11.20;10.00;;;;;24.92;27.67;99701.09;4927333;28;8932;-69
2022/05/08 10:56:20;;;;;;;;;10.40;10.40;;;;;25.05;27.47;99703.94;4926918;29;8886;-70
2022/05/08 10:58:55;;;;;;;;;12.60;11.40;;;;;25.25;27.05;99695.63;4943239;28;8826;-71
2022/05/08 11:01:27;;;;;;;;;11.00;10.00;;;;;25.45;27.18;99696.28;4998921;28;9633;-72
2022/05/08 11:04:10;;;;;;;;;10.80;10.20;;;;;25.59;27.38;99693.59;4985654;28;8842;-74
2022/05/08 11:06:39;;;;;;;;;12.80;11.20;;;;;25.54;26.33;99685.03;5000477;28;8840;-69
2022/05/08 11:09:08;;;;;;;;;10.40;10.40;;;;;25.49;26.78;99695.13;4987769;28;8867;-77
2022/05/08 11:11:36;;;;;;;;;9.60;9.60;;;;;25.73;26.37;99686.56;4986215;28;9614;-75
2022/05/08 11:14:05;;;;;;;;;12.00;11.00;;;;;25.86;26.45;99683.06;5002631;28;8879;-72
2022/05/08 11:16:36;;;;;;;;;11.00;11.00;;;;;25.78;26.10;99681.81;5065272;28;8838;-74
2022/05/08 11:19:07;;;;;;;;;12.00;12.00;;;;;25.87;25.72;99676.75;5064704;28;8886;-70
2022/05/08 11:21:37;;;;;;;;;7.60;7.60;;;;;26.10;26.02;99682.50;5057653;28;8871;-70
2022/05/08 11:24:06;;;;;;;;;11.60;11.60;;;;;26.22;26.32;99675.56;5074667;28;8860;-73
2022/05/08 11:26:36;;;;;;;;;10.80;10.40;;;;;26.26;25.02;99677.06;5053657;28;8869;-71
2022/05/08 11:29:04;;;;;;;;;12.60;12.20;;;;;26.55;24.86;99667.16;5038851;28;8912;-68
2022/05/08 11:31:36;;;;;;;;;11.20;11.00;;;;;26.44;24.60;99658.97;5060602;28;8846;-72
2022/05/08 11:37:01;;;;;;;;;10.00;10.00;;;;;26.31;23.86;99663.41;5051206;28;8850;-76
2022/05/08 11:39:30;;;;;;;;;9.40;9.40;;;;;26.35;24.53;99657.78;5057800;28;8859;-68
2022/05/08 11:41:59;;;;;;;;;10.00;9.80;;;;;26.54;24.11;99652.09;5050755;28;8972;-76
2022/05/08 11:44:28;;;;;;;;;10.00;10.00;;;;;26.65;23.82;99656.75;5051234;28;8885;-72
2022/05/08 11:46:58;;;;;;;;;10.40;10.00;;;;;26.75;24.06;99660.56;5046589;28;8889;-70
2022/05/08 11:49:29;;;;;;;;;10.80;10.60;;;;;26.56;23.25;99657.31;5012476;28;8955;-76
2022/05/08 11:52:00;;;;;;;;;12.20;11.20;;;;;26.50;23.40;99653.22;5062070;28;8842;-69
2022/05/08 11:54:30;;;;;;;;;10.20;10.20;;;;;26.33;23.76;99658.81;5046669;28;9034;-74
2022/05/08 11:57:14;;;;;;;;;12.40;11.60;;;;;26.43;23.43;99652.78;5062811;28;8909;-74
2022/05/08 11:59:44;;;;;;;;;10.40;10.40;;;;;26.78;23.42;99640.75;5050939;28;8858;-73
2022/05/08 12:02:15;;;;;;;;;13.80;11.60;;;;;27.09;23.05;99652.94;5046560;28;8862;-71
2022/05/08 12:04:53;;;;;;;;;10.60;9.00;;;;;26.95;23.00;99656.53;5057896;28;9651;-77
2022/05/08 12:07:22;;;;;;;;;10.00;10.00;;;;;26.97;23.22;99651.09;5026760;28;8839;-77
2022/05/08 12:09:55;;;;;;;;;11.40;11.40;;;;;27.13;23.07;99645.56;4999564;28;8876;-80
2022/05/08 12:12:29;;;;;;;;;11.40;9.80;;;;;27.13;23.42;99650.94;5047911;28;8937;-73
2022/05/08 12:15:01;;;;;;;;;11.00;9.80;;;;;27.12;23.24;99641.16;5033586;28;8848;-76
2022/05/08 12:17:54;;;;;;;;;11.80;11.80;;;;;27.48;22.80;99634.28;5031160;28;9588;-76
2022/05/08 12:20:26;;;;;;;;;10.00;9.00;;;;;27.77;23.01;99637.63;5046222;28;8892;-70